sensor_id;sensor_type;location;lat;lon;timestamp;temperature;humidity
16511;DHT22;8368;48.772;8.754;2023-05-31T00:02:12;12.60;99.90
16511;DHT22;8368;48.772;8.754;2023-05-31T00:04:38;12.60;99.90
16511;DHT22;8368;48.772;8.754;2023-05-31T00:07:05;12.60;99.90
16511;DHT22;8368;48.772;8.754;2023-05-31T00:09:30;12.60;99.90
16511;DHT22;8368;48.772;8.754;2023-05-31T00:11:56;12.60;99.90
16511;DHT22;8368;48.772;8.754;2023-05-31T00:14:22;12.60;99.90
16511;DHT22;8368;48.772;8.754;2023-05-31T00:16:47;12.60;99.90
16511;DHT22;8368;48.772;8.754;2023-05-31T00:19:13;12.50;99.90
16511;DHT22;8368;48.772;8.754;2023-05-31T00:21:38;12.50;99.90
16511;DHT22;8368;48.772;8.754;2023-05-31T00:24:04;12.50;99.90
16511;DHT22;8368;48.772;8.754;2023-05-31T00:26:29;12.50;99.90
16511;DHT22;8368;48.772;8.754;2023-05-31T00:28:55;12.40;99.90
16511;DHT22;8368;48.772;8.754;2023-05-31T00:31:21;12.40;99.90
16511;DHT22;8368;48.772;8.754;2023-05-31T00:33:46;12.40;99.90
16511;DHT22;8368;48.772;8.754;2023-05-31T00:36:12;12.30;99.90
16511;DHT22;8368;48.772;8.754;2023-05-31T00:38:37;12.30;99.90
16511;DHT22;8368;48.772;8.754;2023-05-31T00:41:03;12.20;99.90
16511;DHT22;8368;48.772;8.754;2023-05-31T00:43:28;12.20;99.90
16511;DHT22;8368;48.772;8.754;2023-05-31T00:45:54;12.10;99.90
16511;DHT22;8368;48.772;8.754;2023-05-31T00:48:19;12.10;99.90
16511;DHT22;8368;48.772;8.754;2023-05-31T00:50:45;12.00;99.90
16511;DHT22;8368;48.772;8.754;2023-05-31T00:53:11;12.00;99.90
16511;DHT22;8368;48.772;8.754;2023-05-31T00:55:37;11.90;99.90
16511;DHT22;8368;48.772;8.754;2023-05-31T00:58:03;11.80;99.90
16511;DHT22;8368;48.772;8.754;2023-05-31T01:00:29;11.80;99.90
16511;DHT22;8368;48.772;8.754;2023-05-31T01:02:56;11.70;99.90
16511;DHT22;8368;48.772;8.754;2023-05-31T01:05:21;11.70;99.90
16511;DHT22;8368;48.772;8.754;2023-05-31T01:07:47;11.60;99.90
16511;DHT22;8368;48.772;8.754;2023-05-31T01:10:12;11.50;99.90
16511;DHT22;8368;48.772;8.754;2023-05-31T01:15:25;11.40;99.90
16511;DHT22;8368;48.772;8.754;2023-05-31T01:18:17;11.30;99.90
16511;DHT22;8368;48.772;8.754;2023-05-31T01:20:51;11.30;99.90
16511;DHT22;8368;48.772;8.754;2023-05-31T01:23:45;11.20;99.90
16511;DHT22;8368;48.772;8.754;2023-05-31T01:26:28;11.20;99.90
16511;DHT22;8368;48.772;8.754;2023-05-31T01:28:58;11.10;99.90
16511;DHT22;8368;48.772;8.754;2023-05-31T01:31:25;11.00;99.90
16511;DHT22;8368;48.772;8.754;2023-05-31T01:33:53;11.00;99.90
16511;DHT22;8368;48.772;8.754;2023-05-31T01:36:19;11.00;99.90
16511;DHT22;8368;48.772;8.754;2023-05-31T01:38:44;11.00;99.90
16511;DHT22;8368;48.772;8.754;2023-05-31T01:41:11;11.00;99.90
16511;DHT22;8368;48.772;8.754;2023-05-31T01:43:41;11.10;99.90
16511;DHT22;8368;48.772;8.754;2023-05-31T01:46:08;11.10;99.90
16511;DHT22;8368;48.772;8.754;2023-05-31T01:48:34;11.20;99.90
16511;DHT22;8368;48.772;8.754;2023-05-31T01:51:01;11.10;99.90
16511;DHT22;8368;48.772;8.754;2023-05-31T01:53:27;11.20;99.90
16511;DHT22;8368;48.772;8.754;2023-05-31T01:55:54;11.10;99.90
16511;DHT22;8368;48.772;8.754;2023-05-31T01:58:20;11.10;99.90
16511;DHT22;8368;48.772;8.754;2023-05-31T02:00:47;11.00;99.90
16511;DHT22;8368;48.772;8.754;2023-05-31T02:03:13;10.90;99.90
16511;DHT22;8368;48.772;8.754;2023-05-31T02:05:54;10.90;99.90
16511;DHT22;8368;48.772;8.754;2023-05-31T02:08:20;10.90;99.90
16511;DHT22;8368;48.772;8.754;2023-05-31T02:10:45;10.80;99.90
16511;DHT22;8368;48.772;8.754;2023-05-31T02:13:11;10.90;99.90
16511;DHT22;8368;48.772;8.754;2023-05-31T02:15:36;10.90;99.90
16511;DHT22;8368;48.772;8.754;2023-05-31T02:18:06;11.00;99.90
16511;DHT22;8368;48.772;8.754;2023-05-31T02:20:33;11.00;99.90
16511;DHT22;8368;48.772;8.754;2023-05-31T02:22:59;11.00;99.90
16511;DHT22;8368;48.772;8.754;2023-05-31T02:25:25;10.90;99.90
16511;DHT22;8368;48.772;8.754;2023-05-31T02:27:50;10.90;99.90
16511;DHT22;8368;48.772;8.754;2023-05-31T02:30:16;10.90;99.90
16511;DHT22;8368;48.772;8.754;2023-05-31T02:32:41;10.80;99.90
16511;DHT22;8368;48.772;8.754;2023-05-31T02:35:09;10.80;99.90
16511;DHT22;8368;48.772;8.754;2023-05-31T02:37:36;10.80;99.90
16511;DHT22;8368;48.772;8.754;2023-05-31T02:40:03;10.70;99.90
16511;DHT22;8368;48.772;8.754;2023-05-31T02:42:35;10.60;99.90
16511;DHT22;8368;48.772;8.754;2023-05-31T02:45:00;10.60;99.90
16511;DHT22;8368;48.772;8.754;2023-05-31T02:47:26;10.60;99.90
16511;DHT22;8368;48.772;8.754;2023-05-31T02:49:52;10.60;99.90
16511;DHT22;8368;48.772;8.754;2023-05-31T02:52:18;10.60;99.90
16511;DHT22;8368;48.772;8.754;2023-05-31T02:54:43;10.60;99.90
16511;DHT22;8368;48.772;8.754;2023-05-31T02:57:08;10.50;99.90
16511;DHT22;8368;48.772;8.754;2023-05-31T02:59:34;10.50;99.90
16511;DHT22;8368;48.772;8.754;2023-05-31T03:02:00;10.50;99.90
16511;DHT22;8368;48.772;8.754;2023-05-31T03:04:25;10.50;99.90
16511;DHT22;8368;48.772;8.754;2023-05-31T03:06:51;10.50;99.90
16511;DHT22;8368;48.772;8.754;2023-05-31T03:09:17;10.50;99.90
16511;DHT22;8368;48.772;8.754;2023-05-31T03:11:44;10.40;99.90
16511;DHT22;8368;48.772;8.754;2023-05-31T03:14:09;10.40;99.90
16511;DHT22;8368;48.772;8.754;2023-05-31T03:16:35;10.40;99.90
16511;DHT22;8368;48.772;8.754;2023-05-31T03:19:00;10.50;99.90
16511;DHT22;8368;48.772;8.754;2023-05-31T03:21:26;10.50;99.90
16511;DHT22;8368;48.772;8.754;2023-05-31T03:23:51;10.40;99.90
16511;DHT22;8368;48.772;8.754;2023-05-31T03:26:17;10.40;99.90
16511;DHT22;8368;48.772;8.754;2023-05-31T03:28:42;10.40;99.90
16511;DHT22;8368;48.772;8.754;2023-05-31T03:31:08;10.30;99.90
16511;DHT22;8368;48.772;8.754;2023-05-31T03:33:33;10.30;99.90
16511;DHT22;8368;48.772;8.754;2023-05-31T03:36:01;10.20;99.90
16511;DHT22;8368;48.772;8.754;2023-05-31T03:38:27;10.20;99.90
16511;DHT22;8368;48.772;8.754;2023-05-31T03:40:53;10.20;99.90
16511;DHT22;8368;48.772;8.754;2023-05-31T03:43:19;10.20;99.90
16511;DHT22;8368;48.772;8.754;2023-05-31T03:45:45;10.20;99.90
16511;DHT22;8368;48.772;8.754;2023-05-31T03:48:11;10.20;99.90
16511;DHT22;8368;48.772;8.754;2023-05-31T03:50:39;10.30;99.90
16511;DHT22;8368;48.772;8.754;2023-05-31T03:53:05;10.20;99.90
16511;DHT22;8368;48.772;8.754;2023-05-31T03:55:31;10.20;99.90
16511;DHT22;8368;48.772;8.754;2023-05-31T03:57:58;10.20;99.90
16511;DHT22;8368;48.772;8.754;2023-05-31T04:00:23;10.30;99.90
16511;DHT22;8368;48.772;8.754;2023-05-31T04:02:49;10.30;99.90
16511;DHT22;8368;48.772;8.754;2023-05-31T04:05:14;10.30;99.90
16511;DHT22;8368;48.772;8.754;2023-05-31T04:07:41;10.40;99.90
16511;DHT22;8368;48.772;8.754;2023-05-31T04:10:07;10.40;99.90
16511;DHT22;8368;48.772;8.754;2023-05-31T04:12:32;10.40;99.90
16511;DHT22;8368;48.772;8.754;2023-05-31T04:14:58;10.40;99.90
16511;DHT22;8368;48.772;8.754;2023-05-31T04:17:23;10.40;99.90
16511;DHT22;8368;48.772;8.754;2023-05-31T04:19:49;10.40;99.90
16511;DHT22;8368;48.772;8.754;2023-05-31T04:22:16;10.50;99.90
16511;DHT22;8368;48.772;8.754;2023-05-31T04:24:41;10.50;99.90
16511;DHT22;8368;48.772;8.754;2023-05-31T04:27:07;10.60;99.90
16511;DHT22;8368;48.772;8.754;2023-05-31T04:29:33;10.60;99.90
16511;DHT22;8368;48.772;8.754;2023-05-31T04:31:59;10.60;99.90
16511;DHT22;8368;48.772;8.754;2023-05-31T04:34:25;10.70;99.90
16511;DHT22;8368;48.772;8.754;2023-05-31T04:36:52;10.70;99.90
16511;DHT22;8368;48.772;8.754;2023-05-31T04:39:18;10.80;99.90
16511;DHT22;8368;48.772;8.754;2023-05-31T04:41:45;10.80;99.90
16511;DHT22;8368;48.772;8.754;2023-05-31T04:44:11;10.90;99.90
16511;DHT22;8368;48.772;8.754;2023-05-31T04:46:37;10.90;99.90
16511;DHT22;8368;48.772;8.754;2023-05-31T04:49:02;11.00;99.90
16511;DHT22;8368;48.772;8.754;2023-05-31T04:51:28;11.00;99.90
16511;DHT22;8368;48.772;8.754;2023-05-31T04:53:54;11.10;99.90
16511;DHT22;8368;48.772;8.754;2023-05-31T04:56:19;11.20;99.90
16511;DHT22;8368;48.772;8.754;2023-05-31T04:58:47;11.20;99.90
16511;DHT22;8368;48.772;8.754;2023-05-31T05:01:12;11.30;99.90
16511;DHT22;8368;48.772;8.754;2023-05-31T05:03:41;11.40;99.90
16511;DHT22;8368;48.772;8.754;2023-05-31T05:06:14;11.50;99.90
16511;DHT22;8368;48.772;8.754;2023-05-31T05:08:41;11.60;99.90
16511;DHT22;8368;48.772;8.754;2023-05-31T05:11:07;11.60;99.90
16511;DHT22;8368;48.772;8.754;2023-05-31T05:13:32;11.70;99.90
16511;DHT22;8368;48.772;8.754;2023-05-31T05:15:58;11.80;99.90
16511;DHT22;8368;48.772;8.754;2023-05-31T05:18:23;11.90;99.90
16511;DHT22;8368;48.772;8.754;2023-05-31T05:20:49;12.00;99.90
16511;DHT22;8368;48.772;8.754;2023-05-31T05:23:14;12.00;99.90
16511;DHT22;8368;48.772;8.754;2023-05-31T05:25:40;12.20;99.90
16511;DHT22;8368;48.772;8.754;2023-05-31T05:28:05;12.20;99.90
16511;DHT22;8368;48.772;8.754;2023-05-31T05:30:31;12.30;99.90
16511;DHT22;8368;48.772;8.754;2023-05-31T05:32:58;12.30;99.90
16511;DHT22;8368;48.772;8.754;2023-05-31T05:35:23;12.40;99.90
16511;DHT22;8368;48.772;8.754;2023-05-31T05:37:49;12.50;99.90
16511;DHT22;8368;48.772;8.754;2023-05-31T05:40:15;12.60;99.90
16511;DHT22;8368;48.772;8.754;2023-05-31T05:42:40;12.60;99.90
16511;DHT22;8368;48.772;8.754;2023-05-31T05:45:07;12.70;99.90
16511;DHT22;8368;48.772;8.754;2023-05-31T05:47:33;12.70;99.90
16511;DHT22;8368;48.772;8.754;2023-05-31T05:49:59;12.80;99.90
16511;DHT22;8368;48.772;8.754;2023-05-31T05:52:25;12.90;99.90
16511;DHT22;8368;48.772;8.754;2023-05-31T05:54:50;13.00;99.90
16511;DHT22;8368;48.772;8.754;2023-05-31T05:57:16;13.00;99.90
16511;DHT22;8368;48.772;8.754;2023-05-31T05:59:42;13.10;99.90
16511;DHT22;8368;48.772;8.754;2023-05-31T06:02:07;13.20;99.90
16511;DHT22;8368;48.772;8.754;2023-05-31T06:04:33;13.20;99.90
16511;DHT22;8368;48.772;8.754;2023-05-31T06:06:58;13.30;99.90
16511;DHT22;8368;48.772;8.754;2023-05-31T06:09:24;13.30;99.90
16511;DHT22;8368;48.772;8.754;2023-05-31T06:11:49;13.40;99.90
16511;DHT22;8368;48.772;8.754;2023-05-31T06:14:15;13.50;99.90
16511;DHT22;8368;48.772;8.754;2023-05-31T06:16:41;13.50;99.90
16511;DHT22;8368;48.772;8.754;2023-05-31T06:19:06;13.60;99.90
16511;DHT22;8368;48.772;8.754;2023-05-31T06:21:32;13.60;99.90
16511;DHT22;8368;48.772;8.754;2023-05-31T06:23:58;13.60;99.90
16511;DHT22;8368;48.772;8.754;2023-05-31T06:26:23;13.70;99.90
16511;DHT22;8368;48.772;8.754;2023-05-31T06:28:49;13.70;99.90
16511;DHT22;8368;48.772;8.754;2023-05-31T06:31:14;13.70;99.90
16511;DHT22;8368;48.772;8.754;2023-05-31T06:33:40;13.80;99.90
16511;DHT22;8368;48.772;8.754;2023-05-31T06:36:06;13.80;99.90
16511;DHT22;8368;48.772;8.754;2023-05-31T06:38:31;13.90;99.90
16511;DHT22;8368;48.772;8.754;2023-05-31T06:40:57;13.90;99.90
16511;DHT22;8368;48.772;8.754;2023-05-31T06:43:23;13.90;99.90
16511;DHT22;8368;48.772;8.754;2023-05-31T06:45:50;14.00;99.90
16511;DHT22;8368;48.772;8.754;2023-05-31T06:48:15;14.10;99.90
16511;DHT22;8368;48.772;8.754;2023-05-31T06:50:41;14.20;99.90
16511;DHT22;8368;48.772;8.754;2023-05-31T06:53:07;14.30;99.90
16511;DHT22;8368;48.772;8.754;2023-05-31T06:55:34;14.30;99.90
16511;DHT22;8368;48.772;8.754;2023-05-31T06:58:01;14.40;99.90
16511;DHT22;8368;48.772;8.754;2023-05-31T07:00:26;14.50;99.90
16511;DHT22;8368;48.772;8.754;2023-05-31T07:02:52;14.50;99.90
16511;DHT22;8368;48.772;8.754;2023-05-31T07:05:18;14.60;99.90
16511;DHT22;8368;48.772;8.754;2023-05-31T07:07:43;14.70;99.90
16511;DHT22;8368;48.772;8.754;2023-05-31T07:10:09;14.80;99.90
16511;DHT22;8368;48.772;8.754;2023-05-31T07:12:34;15.00;99.90
16511;DHT22;8368;48.772;8.754;2023-05-31T07:15:00;15.10;99.90
16511;DHT22;8368;48.772;8.754;2023-05-31T07:17:25;15.10;99.90
16511;DHT22;8368;48.772;8.754;2023-05-31T07:19:51;15.20;99.90
16511;DHT22;8368;48.772;8.754;2023-05-31T07:22:17;15.30;99.90
16511;DHT22;8368;48.772;8.754;2023-05-31T07:24:43;15.40;99.90
16511;DHT22;8368;48.772;8.754;2023-05-31T07:27:09;15.40;99.90
16511;DHT22;8368;48.772;8.754;2023-05-31T07:29:36;15.50;99.90
16511;DHT22;8368;48.772;8.754;2023-05-31T07:32:01;15.50;99.90
16511;DHT22;8368;48.772;8.754;2023-05-31T07:34:27;15.60;99.90
16511;DHT22;8368;48.772;8.754;2023-05-31T07:36:52;15.70;99.90
16511;DHT22;8368;48.772;8.754;2023-05-31T07:39:20;15.80;99.90
16511;DHT22;8368;48.772;8.754;2023-05-31T07:41:45;15.90;99.90
16511;DHT22;8368;48.772;8.754;2023-05-31T07:44:11;16.00;99.90
16511;DHT22;8368;48.772;8.754;2023-05-31T07:46:36;16.10;99.90
16511;DHT22;8368;48.772;8.754;2023-05-31T07:49:02;16.10;99.90
16511;DHT22;8368;48.772;8.754;2023-05-31T07:51:29;16.10;99.90
16511;DHT22;8368;48.772;8.754;2023-05-31T07:53:54;16.20;99.90
16511;DHT22;8368;48.772;8.754;2023-05-31T07:56:20;16.30;99.90
16511;DHT22;8368;48.772;8.754;2023-05-31T07:58:46;16.30;99.90
16511;DHT22;8368;48.772;8.754;2023-05-31T08:01:11;16.30;99.90
16511;DHT22;8368;48.772;8.754;2023-05-31T08:03:38;16.30;99.90
16511;DHT22;8368;48.772;8.754;2023-05-31T08:06:03;16.40;99.90
16511;DHT22;8368;48.772;8.754;2023-05-31T08:08:29;16.50;99.90
16511;DHT22;8368;48.772;8.754;2023-05-31T08:10:58;16.60;99.90
16511;DHT22;8368;48.772;8.754;2023-05-31T08:13:24;16.80;99.90
16511;DHT22;8368;48.772;8.754;2023-05-31T08:15:49;16.90;99.90
16511;DHT22;8368;48.772;8.754;2023-05-31T08:18:15;16.90;99.90
16511;DHT22;8368;48.772;8.754;2023-05-31T08:20:41;17.00;99.90
16511;DHT22;8368;48.772;8.754;2023-05-31T08:23:06;17.10;99.90
16511;DHT22;8368;48.772;8.754;2023-05-31T08:25:32;17.20;99.90
16511;DHT22;8368;48.772;8.754;2023-05-31T08:27:58;17.30;99.90
16511;DHT22;8368;48.772;8.754;2023-05-31T08:30:23;17.40;99.90
16511;DHT22;8368;48.772;8.754;2023-05-31T08:32:49;17.50;99.90
16511;DHT22;8368;48.772;8.754;2023-05-31T08:35:15;17.60;99.90
16511;DHT22;8368;48.772;8.754;2023-05-31T08:37:40;17.60;99.90
16511;DHT22;8368;48.772;8.754;2023-05-31T08:40:07;17.60;99.90
16511;DHT22;8368;48.772;8.754;2023-05-31T08:42:52;17.60;99.90
16511;DHT22;8368;48.772;8.754;2023-05-31T08:45:20;17.70;99.90
16511;DHT22;8368;48.772;8.754;2023-05-31T08:47:58;17.90;99.90
16511;DHT22;8368;48.772;8.754;2023-05-31T08:50:26;17.90;99.90
16511;DHT22;8368;48.772;8.754;2023-05-31T08:52:52;18.00;99.90
16511;DHT22;8368;48.772;8.754;2023-05-31T08:55:18;18.10;99.90
16511;DHT22;8368;48.772;8.754;2023-05-31T08:57:44;18.20;99.90
16511;DHT22;8368;48.772;8.754;2023-05-31T09:00:10;18.30;99.90
16511;DHT22;8368;48.772;8.754;2023-05-31T09:02:37;18.50;99.90
16511;DHT22;8368;48.772;8.754;2023-05-31T09:05:04;18.60;99.90
16511;DHT22;8368;48.772;8.754;2023-05-31T09:07:30;18.60;99.90
16511;DHT22;8368;48.772;8.754;2023-05-31T09:09:56;18.70;99.90
16511;DHT22;8368;48.772;8.754;2023-05-31T09:12:21;18.70;99.90
16511;DHT22;8368;48.772;8.754;2023-05-31T09:14:47;18.70;99.90
16511;DHT22;8368;48.772;8.754;2023-05-31T09:17:13;18.80;99.90
16511;DHT22;8368;48.772;8.754;2023-05-31T09:19:58;18.90;99.90
16511;DHT22;8368;48.772;8.754;2023-05-31T09:22:24;18.90;99.90
16511;DHT22;8368;48.772;8.754;2023-05-31T09:24:57;19.00;99.90
16511;DHT22;8368;48.772;8.754;2023-05-31T09:27:23;19.10;99.90
16511;DHT22;8368;48.772;8.754;2023-05-31T09:29:53;19.10;99.90
16511;DHT22;8368;48.772;8.754;2023-05-31T09:32:19;19.00;99.90
16511;DHT22;8368;48.772;8.754;2023-05-31T09:34:45;19.00;99.90
16511;DHT22;8368;48.772;8.754;2023-05-31T09:37:24;19.00;99.90
16511;DHT22;8368;48.772;8.754;2023-05-31T09:39:57;19.10;99.90
16511;DHT22;8368;48.772;8.754;2023-05-31T09:42:26;19.30;99.90
16511;DHT22;8368;48.772;8.754;2023-05-31T09:44:54;19.30;99.90
16511;DHT22;8368;48.772;8.754;2023-05-31T09:47:24;19.50;99.90
16511;DHT22;8368;48.772;8.754;2023-05-31T09:49:53;19.60;99.90
16511;DHT22;8368;48.772;8.754;2023-05-31T09:52:27;19.60;99.90
16511;DHT22;8368;48.772;8.754;2023-05-31T09:54:55;19.50;99.90
16511;DHT22;8368;48.772;8.754;2023-05-31T09:57:35;19.60;99.90
16511;DHT22;8368;48.772;8.754;2023-05-31T10:02:47;19.80;99.90
16511;DHT22;8368;48.772;8.754;2023-05-31T10:05:13;19.80;99.90
16511;DHT22;8368;48.772;8.754;2023-05-31T10:07:44;19.70;99.90
16511;DHT22;8368;48.772;8.754;2023-05-31T10:10:10;19.70;99.90
16511;DHT22;8368;48.772;8.754;2023-05-31T10:12:46;19.70;99.90
16511;DHT22;8368;48.772;8.754;2023-05-31T10:15:16;19.70;99.90
16511;DHT22;8368;48.772;8.754;2023-05-31T10:17:45;19.70;99.90
16511;DHT22;8368;48.772;8.754;2023-05-31T10:20:15;19.70;99.90
16511;DHT22;8368;48.772;8.754;2023-05-31T10:22:41;19.70;99.90
16511;DHT22;8368;48.772;8.754;2023-05-31T10:25:21;19.70;99.90
16511;DHT22;8368;48.772;8.754;2023-05-31T10:27:51;19.50;99.90
16511;DHT22;8368;48.772;8.754;2023-05-31T10:30:18;19.30;99.90
16511;DHT22;8368;48.772;8.754;2023-05-31T10:32:56;19.30;99.90
16511;DHT22;8368;48.772;8.754;2023-05-31T10:35:25;19.20;99.90
16511;DHT22;8368;48.772;8.754;2023-05-31T10:37:51;19.20;99.90
16511;DHT22;8368;48.772;8.754;2023-05-31T10:40:41;19.20;99.90
16511;DHT22;8368;48.772;8.754;2023-05-31T10:43:38;19.20;99.90
16511;DHT22;8368;48.772;8.754;2023-05-31T10:46:09;19.30;99.90
16511;DHT22;8368;48.772;8.754;2023-05-31T10:48:53;19.50;99.90
16511;DHT22;8368;48.772;8.754;2023-05-31T10:54:02;19.80;99.90
16511;DHT22;8368;48.772;8.754;2023-05-31T10:56:28;19.90;99.90
16511;DHT22;8368;48.772;8.754;2023-05-31T10:58:54;19.90;99.90
16511;DHT22;8368;48.772;8.754;2023-05-31T11:01:19;19.90;99.90
16511;DHT22;8368;48.772;8.754;2023-05-31T11:03:51;20.10;99.90
16511;DHT22;8368;48.772;8.754;2023-05-31T11:06:28;20.10;99.90
16511;DHT22;8368;48.772;8.754;2023-05-31T11:09:10;20.10;99.90
16511;DHT22;8368;48.772;8.754;2023-05-31T11:14:09;20.30;99.90
16511;DHT22;8368;48.772;8.754;2023-05-31T11:19:20;20.30;99.90
16511;DHT22;8368;48.772;8.754;2023-05-31T11:24:32;20.70;99.90
16511;DHT22;8368;48.772;8.754;2023-05-31T11:27:00;20.60;99.90
16511;DHT22;8368;48.772;8.754;2023-05-31T11:34:59;20.90;99.90
16511;DHT22;8368;48.772;8.754;2023-05-31T11:37:30;21.00;99.90
16511;DHT22;8368;48.772;8.754;2023-05-31T11:40:00;21.20;99.90
16511;DHT22;8368;48.772;8.754;2023-05-31T11:42:35;21.40;99.90
16511;DHT22;8368;48.772;8.754;2023-05-31T11:45:11;21.50;99.90
16511;DHT22;8368;48.772;8.754;2023-05-31T11:50:24;21.30;99.90
16511;DHT22;8368;48.772;8.754;2023-05-31T11:52:50;21.20;99.90
16511;DHT22;8368;48.772;8.754;2023-05-31T11:55:16;21.10;99.90
16511;DHT22;8368;48.772;8.754;2023-05-31T11:57:44;21.30;99.90
16511;DHT22;8368;48.772;8.754;2023-05-31T12:00:10;21.50;99.90
16511;DHT22;8368;48.772;8.754;2023-05-31T12:02:42;21.70;99.90
16511;DHT22;8368;48.772;8.754;2023-05-31T12:05:14;21.90;99.90
16511;DHT22;8368;48.772;8.754;2023-05-31T12:07:41;22.20;99.90
16511;DHT22;8368;48.772;8.754;2023-05-31T12:10:07;22.00;99.90
16511;DHT22;8368;48.772;8.754;2023-05-31T12:12:34;22.00;99.90
16511;DHT22;8368;48.772;8.754;2023-05-31T12:15:00;22.20;99.90
16511;DHT22;8368;48.772;8.754;2023-05-31T12:17:32;22.50;99.90
16511;DHT22;8368;48.772;8.754;2023-05-31T12:19:58;22.60;99.90
16511;DHT22;8368;48.772;8.754;2023-05-31T12:22:24;22.70;99.90
16511;DHT22;8368;48.772;8.754;2023-05-31T12:24:50;22.80;99.90
16511;DHT22;8368;48.772;8.754;2023-05-31T12:27:16;22.90;99.90
16511;DHT22;8368;48.772;8.754;2023-05-31T12:29:43;22.90;99.90
16511;DHT22;8368;48.772;8.754;2023-05-31T12:32:09;22.70;99.90
16511;DHT22;8368;48.772;8.754;2023-05-31T12:34:35;22.70;99.90
16511;DHT22;8368;48.772;8.754;2023-05-31T12:37:06;22.60;99.90
16511;DHT22;8368;48.772;8.754;2023-05-31T12:39:32;22.80;99.90
16511;DHT22;8368;48.772;8.754;2023-05-31T12:42:03;23.10;99.90
16511;DHT22;8368;48.772;8.754;2023-05-31T12:44:30;23.10;99.90
16511;DHT22;8368;48.772;8.754;2023-05-31T12:47:00;23.10;99.90
16511;DHT22;8368;48.772;8.754;2023-05-31T12:49:28;23.20;99.90
16511;DHT22;8368;48.772;8.754;2023-05-31T12:51:58;23.60;99.90
16511;DHT22;8368;48.772;8.754;2023-05-31T12:54:26;23.80;99.90
16511;DHT22;8368;48.772;8.754;2023-05-31T12:56:52;23.90;99.80
16511;DHT22;8368;48.772;8.754;2023-05-31T12:59:18;24.50;98.40
16511;DHT22;8368;48.772;8.754;2023-05-31T13:01:44;25.20;96.20
16511;DHT22;8368;48.772;8.754;2023-05-31T13:04:10;26.10;97.20
16511;DHT22;8368;48.772;8.754;2023-05-31T13:06:38;26.70;94.90
16511;DHT22;8368;48.772;8.754;2023-05-31T13:09:03;27.60;94.60
16511;DHT22;8368;48.772;8.754;2023-05-31T13:11:34;29.00;95.40
16511;DHT22;8368;48.772;8.754;2023-05-31T13:14:00;30.20;92.30
16511;DHT22;8368;48.772;8.754;2023-05-31T13:16:26;30.90;90.60
16511;DHT22;8368;48.772;8.754;2023-05-31T13:18:52;31.00;90.20
16511;DHT22;8368;48.772;8.754;2023-05-31T13:21:17;30.30;87.30
16511;DHT22;8368;48.772;8.754;2023-05-31T13:23:43;29.30;86.90
16511;DHT22;8368;48.772;8.754;2023-05-31T13:26:08;28.80;89.10
16511;DHT22;8368;48.772;8.754;2023-05-31T13:28:34;29.90;85.80
16511;DHT22;8368;48.772;8.754;2023-05-31T13:30:59;30.30;83.60
16511;DHT22;8368;48.772;8.754;2023-05-31T13:33:25;30.60;84.80
16511;DHT22;8368;48.772;8.754;2023-05-31T13:35:53;30.70;86.00
16511;DHT22;8368;48.772;8.754;2023-05-31T13:38:21;30.20;80.60
16511;DHT22;8368;48.772;8.754;2023-05-31T13:40:48;30.50;84.80
16511;DHT22;8368;48.772;8.754;2023-05-31T13:43:17;31.10;82.10
16511;DHT22;8368;48.772;8.754;2023-05-31T13:45:43;31.40;81.80
16511;DHT22;8368;48.772;8.754;2023-05-31T13:48:09;31.50;80.10
16511;DHT22;8368;48.772;8.754;2023-05-31T13:50:35;31.60;76.00
16511;DHT22;8368;48.772;8.754;2023-05-31T13:53:00;31.00;76.10
16511;DHT22;8368;48.772;8.754;2023-05-31T13:55:26;31.40;80.10
16511;DHT22;8368;48.772;8.754;2023-05-31T13:57:51;32.80;77.60
16511;DHT22;8368;48.772;8.754;2023-05-31T14:00:17;32.70;75.90
16511;DHT22;8368;48.772;8.754;2023-05-31T14:02:43;31.80;74.20
16511;DHT22;8368;48.772;8.754;2023-05-31T14:05:08;31.00;76.50
16511;DHT22;8368;48.772;8.754;2023-05-31T14:07:34;30.60;73.00
16511;DHT22;8368;48.772;8.754;2023-05-31T14:10:01;31.20;76.50
16511;DHT22;8368;48.772;8.754;2023-05-31T14:12:28;30.50;74.00
16511;DHT22;8368;48.772;8.754;2023-05-31T14:14:55;30.40;72.80
16511;DHT22;8368;48.772;8.754;2023-05-31T14:17:21;30.10;72.90
16511;DHT22;8368;48.772;8.754;2023-05-31T14:19:47;30.30;77.30
16511;DHT22;8368;48.772;8.754;2023-05-31T14:22:12;30.60;74.50
16511;DHT22;8368;48.772;8.754;2023-05-31T14:24:38;30.00;71.60
16511;DHT22;8368;48.772;8.754;2023-05-31T14:27:04;29.20;72.50
16511;DHT22;8368;48.772;8.754;2023-05-31T14:29:29;29.20;75.20
16511;DHT22;8368;48.772;8.754;2023-05-31T14:31:55;29.10;76.60
16511;DHT22;8368;48.772;8.754;2023-05-31T14:34:21;29.10;75.30
16511;DHT22;8368;48.772;8.754;2023-05-31T14:36:46;29.00;74.20
16511;DHT22;8368;48.772;8.754;2023-05-31T14:39:12;28.40;73.70
16511;DHT22;8368;48.772;8.754;2023-05-31T14:41:37;28.60;74.50
16511;DHT22;8368;48.772;8.754;2023-05-31T14:44:03;28.10;72.90
16511;DHT22;8368;48.772;8.754;2023-05-31T14:46:28;27.90;75.40
16511;DHT22;8368;48.772;8.754;2023-05-31T14:48:54;27.20;72.60
16511;DHT22;8368;48.772;8.754;2023-05-31T14:51:20;26.70;75.30
16511;DHT22;8368;48.772;8.754;2023-05-31T14:53:46;26.30;76.00
16511;DHT22;8368;48.772;8.754;2023-05-31T14:56:12;26.10;77.20
16511;DHT22;8368;48.772;8.754;2023-05-31T14:58:37;25.70;75.50
16511;DHT22;8368;48.772;8.754;2023-05-31T15:01:03;25.60;77.50
16511;DHT22;8368;48.772;8.754;2023-05-31T15:03:28;25.50;80.60
16511;DHT22;8368;48.772;8.754;2023-05-31T15:05:54;25.40;77.80
16511;DHT22;8368;48.772;8.754;2023-05-31T15:08:19;25.30;78.50
16511;DHT22;8368;48.772;8.754;2023-05-31T15:10:45;25.10;77.30
16511;DHT22;8368;48.772;8.754;2023-05-31T15:13:10;25.10;78.30
16511;DHT22;8368;48.772;8.754;2023-05-31T15:15:36;24.90;77.10
16511;DHT22;8368;48.772;8.754;2023-05-31T15:18:03;24.70;77.50
16511;DHT22;8368;48.772;8.754;2023-05-31T15:20:29;24.50;78.70
16511;DHT22;8368;48.772;8.754;2023-05-31T15:22:55;24.60;79.30
16511;DHT22;8368;48.772;8.754;2023-05-31T15:25:20;24.40;76.20
16511;DHT22;8368;48.772;8.754;2023-05-31T15:27:46;24.20;80.80
16511;DHT22;8368;48.772;8.754;2023-05-31T15:30:12;24.30;79.90
16511;DHT22;8368;48.772;8.754;2023-05-31T15:32:38;24.40;81.00
16511;DHT22;8368;48.772;8.754;2023-05-31T15:35:04;24.30;79.50
16511;DHT22;8368;48.772;8.754;2023-05-31T15:37:29;24.20;76.10
16511;DHT22;8368;48.772;8.754;2023-05-31T15:39:55;24.00;78.90
16511;DHT22;8368;48.772;8.754;2023-05-31T15:42:21;24.00;79.80
16511;DHT22;8368;48.772;8.754;2023-05-31T15:44:46;24.00;79.30
16511;DHT22;8368;48.772;8.754;2023-05-31T15:47:13;23.90;79.70
16511;DHT22;8368;48.772;8.754;2023-05-31T15:49:40;23.80;77.90
16511;DHT22;8368;48.772;8.754;2023-05-31T15:52:06;23.70;79.30
16511;DHT22;8368;48.772;8.754;2023-05-31T15:54:31;23.60;78.10
16511;DHT22;8368;48.772;8.754;2023-05-31T15:56:57;23.60;80.70
16511;DHT22;8368;48.772;8.754;2023-05-31T15:59:23;23.60;78.20
16511;DHT22;8368;48.772;8.754;2023-05-31T16:01:48;23.50;79.90
16511;DHT22;8368;48.772;8.754;2023-05-31T16:04:14;23.40;77.80
16511;DHT22;8368;48.772;8.754;2023-05-31T16:06:39;23.40;80.50
16511;DHT22;8368;48.772;8.754;2023-05-31T16:09:05;23.50;80.20